createdAt,value
2019-04-21T00:01:50.703Z,72.30
2019-04-21T00:04:30.808Z,73.10
2019-04-21T00:07:09.973Z,74.70
2019-04-21T00:09:40.062Z,73.90
2019-04-21T00:12:09.216Z,74.10
2019-04-21T00:14:30.260Z,73.80
2019-04-21T00:16:57.523Z,74.40
2019-04-21T00:19:28.466Z,73.90
2019-04-21T00:22:05.980Z,73.50
2019-04-21T00:24:41.415Z,73.30
2019-04-21T00:27:13.910Z,73.40
2019-04-21T00:29:43.726Z,73.30
2019-04-21T00:32:10.413Z,73.50
2019-04-21T00:34:25.826Z,73.70
2019-04-21T00:37:05.767Z,73.80
2019-04-21T00:42:14.107Z,74.50
2019-04-21T00:44:38.101Z,75.30
2019-04-21T00:47:22.140Z,74.60
2019-04-21T00:49:43.527Z,74.90
2019-04-21T00:52:41.255Z,74.50
2019-04-21T00:55:08.310Z,74.60
2019-04-21T00:57:34.277Z,74.50
2019-04-21T00:59:59.171Z,74.20
2019-04-21T01:02:39.926Z,74.80
2019-04-21T01:05:09.109Z,75.00
2019-04-21T01:07:31.404Z,77.70
2019-04-21T01:09:56.056Z,76.20
2019-04-21T01:12:33.429Z,76.80
2019-04-21T01:15:04.168Z,77.80
2019-04-21T01:17:27.657Z,77.70
2019-04-21T01:19:57.475Z,78.20
2019-04-21T01:22:11.266Z,78.70
2019-04-21T01:24:44.882Z,78.30
2019-04-21T01:27:18.625Z,78.60
2019-04-21T01:30:00.064Z,79.70
2019-04-21T01:32:31.125Z,80.70
2019-04-21T01:35:02.630Z,78.60
2019-04-21T01:37:32.952Z,78.40
2019-04-21T01:40:08.480Z,78.10
2019-04-21T01:42:32.728Z,78.50
2019-04-21T01:44:58.231Z,78.90
2019-04-21T01:47:24.994Z,78.80
2019-04-21T01:49:50.064Z,78.60
2019-04-21T01:52:38.403Z,78.00
2019-04-21T01:55:25.086Z,78.20
2019-04-21T01:57:47.096Z,79.00
2019-04-21T02:00:09.670Z,79.20
2019-04-21T02:02:54.164Z,78.80
2019-04-21T02:05:26.448Z,78.60
2019-04-21T02:07:44.648Z,78.30
2019-04-21T02:10:19.734Z,78.40
2019-04-21T02:12:51.277Z,78.30
2019-04-21T02:15:26.869Z,78.60
2019-04-21T02:17:51.703Z,78.50
2019-04-21T02:20:11.809Z,77.70
2019-04-21T02:23:07.409Z,78.00
2019-04-21T02:25:22.781Z,78.60
2019-04-21T02:27:49.785Z,79.50
2019-04-21T02:33:19.600Z,82.00
2019-04-21T02:35:50.798Z,84.00
2019-04-21T02:40:39.083Z,82.40
2019-04-21T02:45:30.486Z,80.80
2019-04-21T02:48:03.930Z,81.20
2019-04-21T02:50:34.031Z,81.10
2019-04-21T02:53:07.014Z,80.70
2019-04-21T02:55:30.318Z,81.40
2019-04-21T02:58:06.221Z,81.10
2019-04-21T03:00:36.727Z,80.90
2019-04-21T03:03:21.287Z,80.70
2019-04-21T03:08:34.024Z,80.50
2019-04-21T03:10:59.218Z,80.70
2019-04-21T03:13:29.772Z,80.70
2019-04-21T03:23:29.537Z,82.80
2019-04-21T03:26:03.417Z,82.10
2019-04-21T03:28:32.411Z,82.20
2019-04-21T03:31:25.472Z,82.20
2019-04-21T03:34:14.828Z,81.80
2019-04-21T03:41:01.445Z,81.60
2019-04-21T03:43:28.216Z,81.10
2019-04-21T03:50:56.663Z,81.10
2019-04-21T03:59:26.429Z,81.50
2019-04-21T04:04:00.778Z,81.50
2019-04-21T04:06:28.557Z,81.70
2019-04-21T04:11:44.016Z,81.20
2019-04-21T04:14:04.461Z,81.40
2019-04-21T04:16:28.122Z,81.70
2019-04-21T04:18:57.736Z,82.00
2019-04-21T04:21:40.014Z,82.40
2019-04-21T04:24:11.053Z,81.70
2019-04-21T04:26:31.583Z,82.20
2019-04-21T04:29:08.901Z,82.60
2019-04-21T04:31:37.614Z,82.80
2019-04-21T04:34:04.426Z,83.50
2019-04-21T04:36:53.268Z,82.60
2019-04-21T04:39:29.131Z,82.30
2019-04-21T04:42:16.107Z,82.40
2019-04-21T04:44:46.696Z,82.70
2019-04-21T04:47:07.349Z,82.40
2019-04-21T04:49:49.853Z,82.40
2019-04-21T04:52:18.968Z,82.30
2019-04-21T04:57:07.975Z,82.30
2019-04-21T05:02:15.103Z,82.40
2019-04-21T05:04:39.740Z,82.20
2019-04-21T05:07:11.933Z,82.50
2019-04-21T05:09:46.503Z,82.90
2019-04-21T05:11:55.629Z,83.20
2019-04-21T05:14:30.418Z,83.40
2019-04-21T05:19:59.369Z,83.60
2019-04-21T05:21:57.133Z,83.40
2019-04-21T05:24:25.494Z,83.50
2019-04-21T05:26:49.421Z,82.90
2019-04-21T05:29:15.856Z,83.10
2019-04-21T05:31:54.744Z,83.60
2019-04-21T05:34:43.056Z,83.40
2019-04-21T05:37:02.647Z,82.80
2019-04-21T05:39:29.200Z,82.50
2019-04-21T05:41:49.688Z,82.30
2019-04-21T05:44:44.374Z,82.40
2019-04-21T05:47:17.220Z,81.70
2019-04-21T05:49:48.260Z,83.70
2019-04-21T05:52:07.975Z,85.90
2019-04-21T05:54:49.624Z,84.70
2019-04-21T05:57:11.510Z,85.00
2019-04-21T05:59:47.280Z,85.50
2019-04-21T06:05:15.214Z,85.30
2019-04-21T06:12:20.871Z,83.70
2019-04-21T06:14:56.021Z,83.80
2019-04-21T06:17:25.323Z,84.50
2019-04-21T06:22:19.534Z,84.60
2019-04-21T06:25:16.283Z,83.80
2019-04-21T06:27:27.530Z,82.80
2019-04-21T06:29:54.689Z,82.20
2019-04-21T06:40:15.184Z,80.10
2019-04-21T06:43:08.257Z,79.10
2019-04-21T06:45:29.593Z,78.40
2019-04-21T06:48:00.882Z,78.30
2019-04-21T06:50:22.748Z,76.20
2019-04-21T06:52:53.859Z,76.40
2019-04-21T06:55:30.789Z,76.40
2019-04-21T06:57:53.237Z,75.10
2019-04-21T07:00:18.473Z,74.30
2019-04-21T07:03:01.237Z,73.90
2019-04-21T07:05:26.373Z,79.00
2019-04-21T07:08:09.216Z,77.50
2019-04-21T07:10:26.546Z,77.90
2019-04-21T07:12:53.994Z,77.50
2019-04-21T07:15:24.917Z,77.10
2019-04-21T07:18:00.114Z,76.60
2019-04-21T07:20:21.511Z,76.30
2019-04-21T07:22:57.335Z,75.40
2019-04-21T07:25:27.953Z,74.40
2019-04-21T07:27:52.459Z,73.30
2019-04-21T07:30:31.132Z,73.50
2019-04-21T07:33:07.305Z,73.70
2019-04-21T07:35:25.325Z,72.60
2019-04-21T07:38:00.902Z,72.40
2019-04-21T07:40:24.698Z,70.90
2019-04-21T07:42:51.450Z,70.90
2019-04-21T07:45:22.514Z,70.60
2019-04-21T07:48:09.304Z,70.20
2019-04-21T07:50:54.449Z,69.10
2019-04-21T07:53:32.258Z,68.20
2019-04-21T07:55:32.629Z,68.00
2019-04-21T07:58:21.168Z,68.70
2019-04-21T08:00:56.435Z,68.60
2019-04-21T08:03:30.056Z,69.20
2019-04-21T08:06:20.664Z,68.10
2019-04-21T08:08:20.751Z,68.20
2019-04-21T08:10:53.646Z,67.00
2019-04-21T08:13:28.920Z,67.00
2019-04-21T08:15:50.974Z,66.50
2019-04-21T08:18:28.655Z,66.00
2019-04-21T08:20:53.377Z,66.40
2019-04-21T08:23:26.636Z,65.90
2019-04-21T08:26:03.767Z,65.30
2019-04-21T08:28:27.582Z,64.80
2019-04-21T08:30:56.823Z,64.60
2019-04-21T08:33:36.637Z,64.10
2019-04-21T08:38:22.001Z,63.70
2019-04-21T08:40:59.022Z,62.40
2019-04-21T08:43:43.104Z,62.00
2019-04-21T08:46:06.800Z,62.70
2019-04-21T08:48:37.917Z,61.70
2019-04-21T08:51:21.030Z,62.10
2019-04-21T08:53:45.612Z,62.30
2019-04-21T08:56:30.324Z,61.60
2019-04-21T08:59:13.869Z,59.60
2019-04-21T09:01:50.094Z,60.00
2019-04-21T09:04:18.543Z,59.20
2019-04-21T09:06:58.665Z,58.70
2019-04-21T09:09:16.801Z,60.00
2019-04-21T09:11:47.526Z,61.00
2019-04-21T09:14:17.850Z,60.10
2019-04-21T09:16:47.499Z,58.60
2019-04-21T09:19:20.226Z,58.50
2019-04-21T09:21:50.506Z,57.50
2019-04-21T09:24:18.999Z,56.40
2019-04-21T09:26:46.112Z,54.10
2019-04-21T09:29:10.838Z,56.30
2019-04-21T09:31:37.470Z,55.90
2019-04-21T09:34:03.173Z,54.30
2019-04-21T09:36:42.638Z,53.30
2019-04-21T09:39:15.094Z,50.40
2019-04-21T09:41:41.074Z,51.40
2019-04-21T09:44:20.008Z,54.30
2019-04-21T09:46:45.317Z,54.50
2019-04-21T09:49:13.596Z,53.00
2019-04-21T09:51:41.653Z,53.00
2019-04-21T09:54:20.382Z,49.40
2019-04-21T09:56:50.388Z,46.00
2019-04-21T09:59:19.541Z,48.60
2019-04-21T10:01:57.608Z,49.50
2019-04-21T10:04:11.992Z,46.10
2019-04-21T10:06:40.532Z,47.90
2019-04-21T10:09:14.168Z,46.30
2019-04-21T10:11:41.480Z,47.40
2019-04-21T10:14:10.131Z,45.20
2019-04-21T10:16:49.563Z,47.80
2019-04-21T10:19:18.008Z,47.20
2019-04-21T10:21:47.774Z,45.90
2019-04-21T10:24:16.359Z,46.30
2019-04-21T10:26:45.191Z,45.00
2019-04-21T10:29:21.785Z,43.20
2019-04-21T10:31:44.969Z,46.90
2019-04-21T10:34:13.590Z,48.50
2019-04-21T10:36:42.945Z,44.60
2019-04-21T10:39:11.618Z,44.30
2019-04-21T10:41:41.389Z,46.10
2019-04-21T10:44:11.333Z,46.20
2019-04-21T10:46:40.594Z,45.90
2019-04-21T10:49:10.405Z,43.00
2019-04-21T10:51:39.401Z,41.90
2019-04-21T10:54:08.244Z,40.00
2019-04-21T10:56:41.729Z,42.60
2019-04-21T10:59:08.035Z,44.80
2019-04-21T11:01:36.893Z,45.70
2019-04-21T11:04:17.181Z,41.90
2019-04-21T11:06:39.983Z,42.40
2019-04-21T11:09:10.684Z,43.20
2019-04-21T11:11:39.737Z,44.10
2019-04-21T11:14:08.636Z,38.50
2019-04-21T11:16:37.299Z,41.50
2019-04-21T11:19:06.297Z,41.50
2019-04-21T11:21:34.893Z,40.80
2019-04-21T11:24:03.947Z,40.90
2019-04-21T11:26:33.707Z,41.50
2019-04-21T11:29:03.185Z,40.80
2019-04-21T11:31:31.680Z,39.90
2019-04-21T11:34:00.904Z,37.40
2019-04-21T11:36:29.527Z,41.30
2019-04-21T11:39:19.955Z,41.90
2019-04-21T11:41:39.396Z,41.50
2019-04-21T11:44:07.934Z,41.30
2019-04-21T11:46:36.430Z,40.50
2019-04-21T11:49:06.234Z,42.60
2019-04-21T11:51:35.245Z,40.30
2019-04-21T11:54:04.609Z,37.40
2019-04-21T11:56:33.127Z,37.00
2019-04-21T11:59:01.742Z,37.50
2019-04-21T12:01:31.544Z,40.60
2019-04-21T12:04:00.431Z,42.30
2019-04-21T12:06:35.114Z,41.50
2019-04-21T12:09:01.238Z,43.20
2019-04-21T12:11:29.623Z,41.90
2019-04-21T12:13:58.445Z,42.30
2019-04-21T12:16:27.069Z,37.00
2019-04-21T12:18:56.680Z,38.70
2019-04-21T12:21:28.303Z,37.70
2019-04-21T12:23:56.590Z,36.70
2019-04-21T12:26:26.390Z,39.80
2019-04-21T12:28:55.817Z,37.60
2019-04-21T12:31:33.698Z,39.00
2019-04-21T12:34:03.885Z,36.20
2019-04-21T12:36:33.713Z,37.60
2019-04-21T12:39:05.099Z,37.20
2019-04-21T12:41:32.863Z,35.70
2019-04-21T12:44:02.540Z,35.80
2019-04-21T12:46:31.887Z,38.70
2019-04-21T12:49:00.348Z,38.90
2019-04-21T12:51:30.081Z,38.70
2019-04-21T12:53:59.586Z,38.70
2019-04-21T12:56:29.406Z,36.10
2019-04-21T12:58:59.417Z,34.60
2019-04-21T13:01:28.044Z,35.30
2019-04-21T13:03:57.490Z,38.60
2019-04-21T13:06:27.640Z,36.40
2019-04-21T13:09:03.393Z,35.80
2019-04-21T13:11:26.344Z,36.20
2019-04-21T13:13:55.727Z,36.70
2019-04-21T13:16:25.437Z,38.30
2019-04-21T13:18:55.324Z,35.50
2019-04-21T13:21:24.322Z,37.70
2019-04-21T13:23:52.954Z,36.70
2019-04-21T13:26:29.657Z,37.80
2019-04-21T13:28:52.278Z,38.10
2019-04-21T13:31:20.751Z,37.10
2019-04-21T13:33:50.192Z,35.40
2019-04-21T13:36:18.818Z,37.60
2019-04-21T13:39:29.788Z,33.70
2019-04-21T13:41:41.911Z,34.00
2019-04-21T13:44:17.766Z,33.30
2019-04-21T13:46:47.292Z,35.10
2019-04-21T13:49:17.075Z,33.50
2019-04-21T13:51:45.925Z,33.20
2019-04-21T13:54:15.619Z,33.40
2019-04-21T13:56:44.904Z,35.00
2019-04-21T13:59:14.058Z,35.20
2019-04-21T14:01:43.636Z,35.80
2019-04-21T14:04:13.723Z,37.00
2019-04-21T14:06:42.958Z,35.60
2019-04-21T14:09:13.685Z,35.20
2019-04-21T14:11:43.504Z,35.80
2019-04-21T14:14:12.457Z,33.10
2019-04-21T14:16:42.228Z,33.00
2019-04-21T14:19:10.907Z,33.50
2019-04-21T14:21:39.359Z,32.20
2019-04-21T14:24:08.879Z,34.70
2019-04-21T14:26:38.573Z,33.20
2019-04-21T14:29:07.730Z,33.20
2019-04-21T14:31:36.284Z,32.60
2019-04-21T14:34:05.964Z,34.00
2019-04-21T14:36:34.940Z,32.50
2019-04-21T14:39:04.990Z,32.80
2019-04-21T14:41:33.668Z,34.10
2019-04-21T14:44:02.896Z,34.20
2019-04-21T14:46:33.287Z,32.80
2019-04-21T14:49:13.083Z,32.40
2019-04-21T14:51:43.380Z,32.30
2019-04-21T14:54:22.528Z,33.80
2019-04-21T14:56:51.397Z,34.10
2019-04-21T14:59:19.806Z,35.80
2019-04-21T15:01:49.590Z,34.00
2019-04-21T15:04:19.368Z,34.00
2019-04-21T15:06:49.491Z,33.70
2019-04-21T15:09:18.879Z,34.90
2019-04-21T15:11:47.709Z,34.60
2019-04-21T15:14:16.187Z,34.20
2019-04-21T15:16:45.025Z,33.10
2019-04-21T15:19:14.736Z,33.60
2019-04-21T15:21:44.621Z,34.20
2019-04-21T15:24:14.247Z,34.30
2019-04-21T15:26:44.188Z,34.90
2019-04-21T15:29:12.961Z,33.60
2019-04-21T15:31:44.660Z,31.80
2019-04-21T15:34:12.994Z,31.50
2019-04-21T15:36:41.951Z,32.10
2019-04-21T15:39:11.763Z,32.90
2019-04-21T15:41:40.792Z,33.50
2019-04-21T15:44:09.892Z,32.00
2019-04-21T15:46:39.788Z,32.50
2019-04-21T15:49:09.189Z,33.30
2019-04-21T15:51:38.043Z,30.40
2019-04-21T15:54:06.876Z,32.40
2019-04-21T15:56:40.786Z,32.80
2019-04-21T15:59:24.454Z,31.20
2019-04-21T16:01:54.951Z,32.80
2019-04-21T16:04:23.395Z,32.00
2019-04-21T16:06:53.439Z,33.00
2019-04-21T16:09:25.281Z,32.50
2019-04-21T16:11:53.501Z,33.20
2019-04-21T16:14:22.769Z,31.30
2019-04-21T16:16:51.719Z,31.90
2019-04-21T16:19:20.330Z,32.70
2019-04-21T16:21:48.783Z,32.70
2019-04-21T16:24:18.410Z,31.90
2019-04-21T16:26:48.728Z,33.00
2019-04-21T16:29:17.463Z,33.10
2019-04-21T16:31:47.028Z,32.20
2019-04-21T16:34:15.826Z,33.10
2019-04-21T16:36:45.598Z,33.00
2019-04-21T16:39:15.479Z,31.90
2019-04-21T16:41:44.590Z,31.10
2019-04-21T16:44:13.416Z,31.30
2019-04-21T16:46:43.279Z,31.70
2019-04-21T16:49:13.643Z,33.00
2019-04-21T16:51:42.343Z,32.30
2019-04-21T16:54:13.633Z,32.50
2019-04-21T16:56:43.934Z,31.70
2019-04-21T16:59:20.913Z,33.00
2019-04-21T17:01:49.418Z,33.50
2019-04-21T17:04:18.257Z,33.40
2019-04-21T17:06:47.121Z,33.20
2019-04-21T17:09:16.792Z,33.20
2019-04-21T17:11:48.509Z,33.20
2019-04-21T17:14:33.124Z,33.80
2019-04-21T17:17:16.129Z,33.50
2019-04-21T17:19:26.940Z,33.30
2019-04-21T17:21:47.913Z,32.90
2019-04-21T17:24:16.819Z,33.00
2019-04-21T17:26:46.489Z,32.70
2019-04-21T17:29:16.865Z,33.30
2019-04-21T17:31:45.705Z,33.70
2019-04-21T17:34:19.726Z,33.90
2019-04-21T17:36:45.384Z,33.80
2019-04-21T17:39:14.052Z,34.10
2019-04-21T17:41:56.446Z,34.60
2019-04-21T17:44:12.699Z,35.30
2019-04-21T17:46:50.016Z,35.40
2019-04-21T17:49:12.685Z,36.10
2019-04-21T17:51:52.526Z,36.30
2019-04-21T17:54:29.699Z,36.70
2019-04-21T17:57:10.930Z,37.00
2019-04-21T17:59:51.183Z,37.50
2019-04-21T18:02:03.632Z,37.60
2019-04-21T18:04:42.899Z,37.80
2019-04-21T18:07:08.094Z,38.10
2019-04-21T18:09:55.200Z,38.60
2019-04-21T18:12:16.597Z,38.70
2019-04-21T18:14:28.510Z,39.10
2019-04-21T18:16:58.149Z,39.40
2019-04-21T18:19:31.070Z,39.70
2019-04-21T18:22:14.769Z,39.90
2019-04-21T18:25:01.621Z,40.10
2019-04-21T18:27:21.935Z,40.40
2019-04-21T18:29:54.661Z,40.40
2019-04-21T18:32:26.348Z,40.90
2019-04-21T18:35:14.130Z,41.10
2019-04-21T18:38:04.370Z,41.30
2019-04-21T18:40:31.715Z,41.60
2019-04-21T18:43:38.900Z,41.60
2019-04-21T18:46:11.474Z,42.00
2019-04-21T18:48:17.294Z,43.40
2019-04-21T18:50:57.349Z,42.40
2019-04-21T18:53:36.494Z,42.70
2019-04-21T18:55:59.437Z,42.90
2019-04-21T18:58:22.313Z,44.20
2019-04-21T19:00:52.721Z,43.00
2019-04-21T19:03:30.699Z,43.20
2019-04-21T19:05:59.308Z,43.60
2019-04-21T19:08:38.843Z,43.90
2019-04-21T19:11:15.080Z,43.90
2019-04-21T19:14:17.520Z,44.20
2019-04-21T19:16:33.228Z,44.20
2019-04-21T19:19:09.766Z,44.40
2019-04-21T19:21:24.781Z,44.20
2019-04-21T19:24:01.706Z,44.20
2019-04-21T19:26:40.987Z,44.80
2019-04-21T19:29:03.547Z,44.20
2019-04-21T19:31:31.866Z,44.20
2019-04-21T19:33:51.653Z,44.40
2019-04-21T19:36:13.167Z,44.20
2019-04-21T19:38:51.679Z,44.10
2019-04-21T19:41:27.986Z,44.40
2019-04-21T19:44:03.658Z,44.50
2019-04-21T19:46:28.946Z,44.50
2019-04-21T19:49:13.445Z,44.60
2019-04-21T19:51:29.048Z,44.80
2019-04-21T19:53:54.025Z,44.90
2019-04-21T19:56:14.202Z,45.30
2019-04-21T19:58:46.065Z,45.50
2019-04-21T20:01:13.757Z,45.70
2019-04-21T20:03:43.155Z,45.80
2019-04-21T20:06:28.755Z,46.10
2019-04-21T20:08:56.429Z,46.10
2019-04-21T20:11:31.179Z,46.20
2019-04-21T20:14:35.340Z,46.20
2019-04-21T20:16:37.457Z,46.40
2019-04-21T20:18:51.451Z,46.30
2019-04-21T20:21:14.308Z,47.10
2019-04-21T20:23:44.668Z,46.80
2019-04-21T20:26:14.060Z,47.00
2019-04-21T20:28:54.746Z,47.00
2019-04-21T20:31:29.360Z,47.20
2019-04-21T20:34:07.037Z,47.40
2019-04-21T20:36:35.453Z,47.60
2019-04-21T20:38:50.143Z,47.50
2019-04-21T20:41:27.008Z,47.50
2019-04-21T20:44:04.197Z,47.40
2019-04-21T20:46:36.694Z,47.10
2019-04-21T20:49:00.009Z,47.40
2019-04-21T20:51:36.257Z,47.40
2019-04-21T20:53:59.018Z,47.50
2019-04-21T20:56:26.887Z,48.30
2019-04-21T20:59:01.573Z,49.80
2019-04-21T21:01:39.988Z,50.50
2019-04-21T21:03:58.119Z,50.70
2019-04-21T21:06:31.591Z,51.70
2019-04-21T21:09:09.086Z,52.00
2019-04-21T21:11:56.829Z,52.50
2019-04-21T21:14:07.186Z,53.00
2019-04-21T21:16:41.906Z,53.20
2019-04-21T21:21:34.439Z,55.10
2019-04-21T21:24:07.131Z,55.00
2019-04-21T21:26:38.108Z,55.50
2019-04-21T21:29:00.279Z,55.30
2019-04-21T21:31:37.205Z,55.70
2019-04-21T21:34:10.394Z,55.80
2019-04-21T21:36:39.830Z,56.70
2019-04-21T21:39:06.874Z,57.00
2019-04-21T21:41:27.706Z,58.20
2019-04-21T21:43:58.648Z,58.70
2019-04-21T21:46:35.113Z,59.20
2019-04-21T21:49:02.682Z,59.30
2019-04-21T21:51:38.436Z,59.70
2019-04-21T21:53:52.710Z,59.50
2019-04-21T21:56:22.758Z,59.20
2019-04-21T21:58:53.492Z,59.10
2019-04-21T22:01:29.517Z,58.80
2019-04-21T22:03:59.118Z,59.40
2019-04-21T22:06:36.313Z,59.80
2019-04-21T22:08:54.487Z,60.70
2019-04-21T22:11:24.145Z,64.10
2019-04-21T22:13:57.642Z,61.00
2019-04-21T22:16:27.529Z,61.50
2019-04-21T22:19:13.838Z,61.10
2019-04-21T22:21:41.529Z,60.80
2019-04-21T22:24:04.711Z,60.80
2019-04-21T22:26:25.303Z,61.00
2019-04-21T22:28:53.996Z,61.20
2019-04-21T22:31:28.476Z,61.40
2019-04-21T22:33:58.565Z,61.90
2019-04-21T22:36:35.254Z,62.30
2019-04-21T22:39:14.847Z,62.70
2019-04-21T22:41:30.978Z,63.20
2019-04-21T22:43:55.906Z,63.00
2019-04-21T22:46:24.458Z,62.60
2019-04-21T22:48:57.265Z,63.50
2019-04-21T22:51:35.373Z,62.50
2019-04-21T22:53:57.607Z,62.30
2019-04-21T22:56:30.062Z,62.30
2019-04-21T22:58:57.015Z,62.30
2019-04-21T23:01:33.703Z,62.20
2019-04-21T23:04:00.914Z,62.40
2019-04-21T23:06:30.854Z,63.20
2019-04-21T23:08:57.050Z,63.30
2019-04-21T23:11:28.063Z,63.10
2019-04-21T23:14:04.112Z,64.00
2019-04-21T23:16:31.672Z,64.10
2019-04-21T23:19:17.287Z,64.30
2019-04-21T23:21:47.692Z,63.80
2019-04-21T23:24:17.809Z,64.10
2019-04-21T23:26:42.052Z,64.80
2019-04-21T23:29:20.565Z,65.50
2019-04-21T23:31:46.696Z,66.00
2019-04-21T23:33:58.123Z,66.50
2019-04-21T23:36:31.357Z,67.00
2019-04-21T23:38:58.488Z,67.60
2019-04-21T23:41:33.587Z,67.40
2019-04-21T23:44:04.028Z,67.60
2019-04-21T23:46:31.949Z,67.80
2019-04-21T23:49:12.693Z,67.70
2019-04-21T23:51:41.009Z,68.30
2019-04-21T23:53:59.452Z,67.90
2019-04-21T23:56:34.067Z,68.10
2019-04-21T23:59:03.187Z,68.10
